Time;durP1;ratioP1;P1;durP2;ratioP2;P2;SDS_P1;SDS_P2;PMS_P1;PMS_P2;Temp;Humidity;BMP_temperature;BMP_pressure;BME280_temperature;BME280_humidity;BME280_pressure;Samples;Min_cycle;Max_cycle;Signal;HPM_P1;HPM_P2
2023/09/03 00:01:04;;;;;;;0.40;0.40;;;22.10;77.10;;;;;;5028537;28;20053;-78
2023/09/03 00:03:30;;;;;;;0.40;0.40;;;22.10;77.10;;;;;;5027689;28;20388;-78
2023/09/03 00:05:56;;;;;;;0.40;0.40;;;22.10;77.10;;;;;;5027582;28;20060;-78
2023/09/03 00:08:22;;;;;;;0.30;0.30;;;22.10;78.00;;;;;;5026775;28;20041;-78
2023/09/03 00:10:49;;;;;;;0.20;0.20;;;22.10;77.00;;;;;;5024645;28;20042;-78
2023/09/03 00:13:14;;;;;;;0.40;0.40;;;22.10;77.10;;;;;;5027263;28;20038;-78
2023/09/03 00:15:40;;;;;;;0.40;0.40;;;22.10;77.10;;;;;;5026069;28;20453;-78
2023/09/03 00:18:06;;;;;;;0.30;0.30;;;22.10;77.10;;;;;;5028042;28;20481;-78
2023/09/03 00:20:32;;;;;;;0.40;0.40;;;22.10;77.10;;;;;;5027674;28;20049;-78
2023/09/03 00:22:58;;;;;;;0.50;0.50;;;22.10;77.10;;;;;;5026597;28;20064;-78
2023/09/03 00:25:23;;;;;;;0.50;0.50;;;22.10;77.10;;;;;;5029315;28;20049;-78
2023/09/03 00:27:49;;;;;;;0.30;0.30;;;22.10;77.10;;;;;;5027105;28;20495;-77
2023/09/03 00:30:14;;;;;;;0.40;0.40;;;22.10;77.20;;;;;;5027604;28;20072;-78
2023/09/03 00:32:40;;;;;;;0.40;0.40;;;22.10;77.10;;;;;;5027231;28;20041;-78
2023/09/03 00:35:06;;;;;;;0.30;0.30;;;22.10;77.20;;;;;;5026624;28;20037;-78
2023/09/03 00:37:31;;;;;;;0.22;0.22;;;22.10;77.20;;;;;;5027537;28;20041;-78
2023/09/03 00:39:57;;;;;;;0.45;0.45;;;22.10;77.30;;;;;;5028392;28;20049;-77
2023/09/03 00:42:22;;;;;;;0.43;0.43;;;22.00;77.10;;;;;;5027261;28;20052;-78
2023/09/03 00:44:48;;;;;;;0.30;0.30;;;22.10;77.10;;;;;;5026234;28;20052;-78
2023/09/03 00:47:13;;;;;;;0.40;0.40;;;22.00;76.90;;;;;;5026896;28;20041;-78
2023/09/03 00:49:41;;;;;;;0.50;0.50;;;22.10;76.90;;;;;;5025635;28;20100;-77
2023/09/03 00:52:07;;;;;;;0.32;0.32;;;22.10;77.80;;;;;;5025079;28;20041;-78
2023/09/03 00:54:33;;;;;;;0.50;0.50;;;22.10;77.10;;;;;;5024575;28;20049;-78
2023/09/03 00:56:58;;;;;;;0.35;0.35;;;22.10;77.20;;;;;;5022139;28;20507;-78
2023/09/03 00:59:24;;;;;;;0.30;0.30;;;22.10;77.30;;;;;;5022877;28;20096;-78
2023/09/03 01:01:51;;;;;;;0.30;0.30;;;22.10;77.20;;;;;;5029424;28;20184;-78
2023/09/03 01:04:18;;;;;;;0.40;0.40;;;22.10;77.30;;;;;;5027133;28;20036;-78
2023/09/03 01:06:44;;;;;;;0.30;0.30;;;22.10;77.10;;;;;;5025733;28;20041;-77
2023/09/03 01:09:10;;;;;;;0.38;0.38;;;22.10;77.20;;;;;;5023257;28;20103;-78
2023/09/03 01:11:42;;;;;;;0.30;0.30;;;22.10;77.10;;;;;;5025092;28;20106;-78
2023/09/03 01:14:11;;;;;;;0.30;0.30;;;22.10;77.20;;;;;;5026000;28;20034;-78
2023/09/03 01:17:00;;;;;;;0.30;0.30;;;22.10;77.20;;;;;;5025672;28;20041;-79
2023/09/03 01:19:48;;;;;;;0.30;0.30;;;22.00;78.00;;;;;;5027083;28;20050;-78
2023/09/03 01:22:22;;;;;;;0.35;0.35;;;22.10;77.10;;;;;;5026603;28;20045;-78
2023/09/03 01:25:00;;;;;;;0.30;0.30;;;22.10;77.10;;;;;;5025790;28;20049;-78
2023/09/03 01:27:32;;;;;;;0.30;0.30;;;22.10;77.20;;;;;;5025287;28;20045;-78
2023/09/03 01:29:57;;;;;;;0.30;0.30;;;22.10;77.10;;;;;;5024963;28;20050;-78
2023/09/03 01:32:23;;;;;;;0.40;0.40;;;22.10;77.00;;;;;;5008704;28;20576;-78
2023/09/03 01:34:48;;;;;;;0.52;0.52;;;22.00;76.90;;;;;;5024055;28;20690;-78
2023/09/03 01:37:14;;;;;;;0.47;0.47;;;22.10;77.70;;;;;;5025771;28;20053;-78
2023/09/03 01:39:39;;;;;;;1.42;0.32;;;22.10;76.90;;;;;;5024993;28;20049;-78
2023/09/03 01:42:05;;;;;;;0.40;0.40;;;22.10;76.90;;;;;;5026174;28;20526;-78
2023/09/03 01:44:31;;;;;;;0.40;0.40;;;22.10;77.00;;;;;;5025611;28;20061;-78
2023/09/03 01:47:21;;;;;;;0.40;0.40;;;22.00;77.00;;;;;;5008895;28;20040;-78
2023/09/03 01:50:28;;;;;;;0.30;0.30;;;22.00;77.70;;;;;;5019058;28;20057;-77
2023/09/03 01:53:16;;;;;;;0.60;0.47;;;22.10;77.00;;;;;;5025218;28;20053;-78
2023/09/03 01:55:42;;;;;;;0.47;0.47;;;22.00;77.00;;;;;;5024842;28;20045;-76
2023/09/03 01:58:07;;;;;;;0.57;0.57;;;22.00;77.10;;;;;;5026017;28;20053;-78
2023/09/03 02:00:33;;;;;;;0.50;0.50;;;22.00;77.10;;;;;;5023540;28;20037;-78
2023/09/03 02:03:00;;;;;;;0.40;0.40;;;22.00;77.10;;;;;;5024650;28;20040;-78
2023/09/03 02:05:25;;;;;;;0.60;0.60;;;22.00;77.20;;;;;;5023629;28;20045;-78
2023/09/03 02:07:51;;;;;;;0.50;0.50;;;22.00;77.10;;;;;;5025439;28;20159;-78
2023/09/03 02:10:17;;;;;;;0.60;0.60;;;22.00;77.90;;;;;;5026997;28;20053;-78
2023/09/03 02:12:43;;;;;;;0.50;0.50;;;22.00;77.10;;;;;;5024426;28;20643;-77
2023/09/03 02:15:08;;;;;;;0.63;0.63;;;22.00;77.10;;;;;;5026449;28;20463;-78
2023/09/03 02:17:34;;;;;;;0.60;0.60;;;22.00;77.10;;;;;;5024922;28;20469;-78
2023/09/03 02:20:00;;;;;;;0.50;0.50;;;22.00;77.10;;;;;;5024640;28;20057;-78
2023/09/03 02:22:25;;;;;;;0.60;0.60;;;22.00;77.10;;;;;;5026026;28;20851;-78
2023/09/03 02:24:51;;;;;;;0.50;0.50;;;22.00;77.10;;;;;;5025642;28;20069;-78
2023/09/03 02:27:16;;;;;;;0.50;0.50;;;22.00;77.10;;;;;;5025124;28;20052;-78
2023/09/03 02:29:42;;;;;;;0.40;0.40;;;22.00;77.00;;;;;;5025625;28;20042;-78
2023/09/03 02:32:08;;;;;;;0.68;0.68;;;21.90;77.10;;;;;;5024589;28;20080;-78
2023/09/03 02:34:36;;;;;;;0.47;0.47;;;22.00;77.10;;;;;;5025159;28;20041;-78
2023/09/03 02:37:02;;;;;;;0.50;0.50;;;22.00;77.10;;;;;;5026414;28;20095;-78
2023/09/03 02:39:28;;;;;;;0.60;0.60;;;21.90;77.00;;;;;;5024293;28;20128;-78
2023/09/03 02:41:53;;;;;;;0.55;0.50;;;22.00;77.10;;;;;;5024676;28;20654;-77
2023/09/03 02:44:19;;;;;;;0.60;0.60;;;22.00;77.20;;;;;;5029096;28;20034;-78
2023/09/03 02:46:44;;;;;;;0.60;0.60;;;22.00;77.20;;;;;;5029009;28;20042;-76
2023/09/03 02:49:10;;;;;;;0.57;0.57;;;22.00;77.20;;;;;;5029183;28;20045;-78
2023/09/03 02:51:37;;;;;;;0.60;0.60;;;21.90;77.20;;;;;;5029719;28;20053;-78
2023/09/03 02:54:03;;;;;;;0.63;0.63;;;22.00;77.20;;;;;;5029198;28;20037;-78
2023/09/03 02:56:29;;;;;;;0.55;0.55;;;22.00;77.20;;;;;;5026407;28;20559;-78
2023/09/03 02:58:54;;;;;;;0.60;0.60;;;22.00;77.20;;;;;;5027338;28;20026;-78
2023/09/03 03:01:20;;;;;;;0.90;0.90;;;22.00;77.10;;;;;;5030155;28;20515;-79
2023/09/03 03:03:46;;;;;;;0.60;0.60;;;22.00;77.10;;;;;;5028761;28;20060;-77
2023/09/03 03:06:12;;;;;;;0.60;0.60;;;22.00;77.10;;;;;;5025282;28;20499;-78
2023/09/03 03:08:37;;;;;;;0.50;0.50;;;22.00;77.00;;;;;;5028211;28;20491;-78
2023/09/03 03:11:11;;;;;;;0.70;0.70;;;22.00;77.10;;;;;;5028136;28;20539;-78
2023/09/03 03:13:37;;;;;;;0.70;0.70;;;22.00;77.00;;;;;;5029629;28;20406;-78
2023/09/03 03:16:05;;;;;;;0.70;0.70;;;22.00;77.00;;;;;;5029503;28;20038;-78
2023/09/03 03:18:31;;;;;;;0.55;0.55;;;22.00;77.00;;;;;;5029200;28;20049;-77
2023/09/03 03:21:09;;;;;;;0.50;0.50;;;22.00;77.00;;;;;;5027794;28;20045;-78
2023/09/03 03:23:36;;;;;;;0.60;0.60;;;22.00;77.10;;;;;;5028900;28;20057;-78
2023/09/03 03:26:01;;;;;;;0.80;0.80;;;22.00;77.00;;;;;;5028437;28;20045;-78
2023/09/03 03:28:29;;;;;;;0.90;0.90;;;22.00;76.90;;;;;;5029646;28;20044;-78
2023/09/03 03:30:55;;;;;;;0.70;0.70;;;22.00;76.90;;;;;;5028353;28;20442;-78
2023/09/03 03:33:21;;;;;;;0.60;0.60;;;22.00;76.90;;;;;;5028298;28;20464;-78
2023/09/03 03:35:47;;;;;;;0.52;0.52;;;22.00;77.00;;;;;;5028135;28;20065;-75
2023/09/03 03:38:12;;;;;;;0.60;0.60;;;22.00;77.00;;;;;;5027678;28;20049;-78
2023/09/03 03:40:38;;;;;;;0.50;0.50;;;22.00;77.10;;;;;;5028913;28;20530;-78
2023/09/03 03:43:03;;;;;;;0.70;0.70;;;22.00;77.10;;;;;;5029225;28;20045;-78
2023/09/03 03:45:32;;;;;;;0.65;0.65;;;21.90;76.90;;;;;;5029036;28;20117;-78
2023/09/03 03:47:57;;;;;;;0.60;0.60;;;22.00;77.00;;;;;;5024246;28;20128;-78
2023/09/03 03:50:23;;;;;;;0.65;0.65;;;22.00;77.00;;;;;;5028626;28;20166;-78
2023/09/03 03:52:48;;;;;;;0.60;0.60;;;22.00;77.00;;;;;;5026926;28;20072;-77
2023/09/03 03:55:14;;;;;;;0.50;0.50;;;22.00;76.90;;;;;;5029859;28;20034;-78
2023/09/03 03:57:41;;;;;;;0.60;0.60;;;22.00;76.90;;;;;;5027456;28;20052;-78
2023/09/03 04:00:07;;;;;;;0.80;0.80;;;22.00;77.00;;;;;;5027966;28;20042;-78
2023/09/03 04:02:32;;;;;;;0.50;0.50;;;22.00;77.00;;;;;;5027863;28;20410;-78
2023/09/03 04:04:58;;;;;;;0.70;0.70;;;22.00;77.10;;;;;;5027340;28;20045;-78
2023/09/03 04:07:24;;;;;;;0.70;0.70;;;22.00;77.10;;;;;;5028828;28;20056;-78
2023/09/03 04:09:49;;;;;;;0.60;0.60;;;22.00;77.10;;;;;;5027523;28;20052;-77
2023/09/03 04:12:15;;;;;;;0.70;0.70;;;22.00;77.10;;;;;;5026424;28;20052;-78
2023/09/03 04:14:40;;;;;;;0.70;0.70;;;22.00;77.10;;;;;;5028357;28;20172;-78
2023/09/03 04:17:06;;;;;;;0.70;0.70;;;22.00;76.90;;;;;;5023612;28;20040;-78
2023/09/03 04:19:31;;;;;;;0.60;0.60;;;22.00;76.70;;;;;;5029092;28;20052;-78
2023/09/03 04:21:57;;;;;;;0.52;0.52;;;22.00;76.80;;;;;;5027359;28;20036;-78
2023/09/03 04:24:22;;;;;;;0.60;0.60;;;22.00;77.60;;;;;;5024193;28;20726;-78
2023/09/03 04:26:48;;;;;;;0.50;0.50;;;22.00;77.00;;;;;;5027909;28;20041;-78
2023/09/03 04:29:13;;;;;;;0.60;0.60;;;22.00;77.00;;;;;;5026873;28;20051;-78
2023/09/03 04:31:40;;;;;;;0.57;0.57;;;22.00;76.90;;;;;;5027078;28;20033;-78
2023/09/03 04:34:06;;;;;;;0.70;0.70;;;22.00;76.90;;;;;;5025953;28;20045;-78
2023/09/03 04:36:33;;;;;;;0.73;0.73;;;22.00;77.10;;;;;;5026905;28;20049;-78
2023/09/03 04:38:59;;;;;;;0.70;0.70;;;21.90;76.90;;;;;;5026871;28;20053;-78
2023/09/03 04:41:25;;;;;;;0.52;0.52;;;22.00;77.00;;;;;;5026971;28;20422;-78
2023/09/03 04:43:50;;;;;;;0.70;0.70;;;21.90;76.90;;;;;;5026873;28;20041;-78
2023/09/03 04:46:16;;;;;;;0.60;0.60;;;21.90;76.90;;;;;;5018893;28;20448;-79
2023/09/03 04:48:41;;;;;;;0.60;0.60;;;22.00;77.00;;;;;;5027700;28;20052;-78
2023/09/03 04:51:07;;;;;;;0.70;0.70;;;22.00;76.90;;;;;;5026528;28;20081;-78
2023/09/03 04:53:33;;;;;;;0.63;0.63;;;21.90;76.90;;;;;;5026419;28;20372;-78
2023/09/03 04:55:58;;;;;;;0.60;0.60;;;22.00;77.00;;;;;;5025951;28;20124;-78
2023/09/03 04:58:24;;;;;;;0.45;0.45;;;22.00;77.00;;;;;;5028767;28;20041;-78
2023/09/03 05:00:50;;;;;;;0.60;0.60;;;21.90;76.90;;;;;;5025631;28;20510;-78
2023/09/03 05:03:15;;;;;;;0.50;0.50;;;21.90;76.80;;;;;;5026528;28;20506;-78
2023/09/03 05:05:43;;;;;;;0.30;0.30;;;22.00;76.80;;;;;;5025902;28;20052;-78
2023/09/03 05:08:09;;;;;;;0.50;0.50;;;21.90;76.70;;;;;;5024838;28;20034;-78
2023/09/03 05:10:34;;;;;;;0.50;0.50;;;22.00;76.80;;;;;;5025515;28;20037;-78
2023/09/03 05:13:03;;;;;;;0.40;0.40;;;22.00;76.80;;;;;;5026464;28;20042;-78
2023/09/03 05:15:28;;;;;;;0.57;0.57;;;21.90;76.90;;;;;;5026835;28;20119;-78
2023/09/03 05:17:54;;;;;;;0.47;0.47;;;21.90;76.80;;;;;;5025650;28;20514;-78
2023/09/03 05:20:20;;;;;;;0.50;0.50;;;21.90;76.80;;;;;;5025666;28;20037;-78
2023/09/03 05:22:45;;;;;;;0.50;0.50;;;21.90;76.80;;;;;;5026660;28;20053;-78
2023/09/03 05:25:11;;;;;;;0.63;0.63;;;21.90;76.70;;;;;;5026612;28;20060;-78
2023/09/03 05:27:36;;;;;;;0.60;0.60;;;21.90;76.70;;;;;;5025939;28;20514;-78
2023/09/03 05:30:03;;;;;;;0.50;0.50;;;21.90;76.80;;;;;;5025690;28;20049;-77
2023/09/03 05:32:28;;;;;;;0.50;0.50;;;22.00;77.00;;;;;;5024371;28;20045;-78
2023/09/03 05:34:54;;;;;;;0.57;0.57;;;21.90;76.90;;;;;;5026194;28;20396;-75
2023/09/03 05:37:19;;;;;;;0.50;0.50;;;21.90;76.90;;;;;;5026477;28;20129;-78
2023/09/03 05:39:45;;;;;;;0.50;0.50;;;21.90;76.70;;;;;;5026672;28;20037;-79
2023/09/03 05:42:10;;;;;;;0.50;0.50;;;21.90;76.80;;;;;;5026772;28;20038;-78
2023/09/03 05:44:36;;;;;;;0.77;0.77;;;21.90;76.80;;;;;;5025513;28;20053;-78
2023/09/03 05:47:01;;;;;;;0.50;0.50;;;21.90;76.70;;;;;;5026414;28;20483;-78
2023/09/03 05:49:27;;;;;;;0.40;0.40;;;21.90;76.60;;;;;;5027237;28;20396;-78
2023/09/03 05:51:53;;;;;;;0.50;0.50;;;21.90;76.60;;;;;;5025813;28;20045;-77
2023/09/03 05:54:18;;;;;;;0.60;0.60;;;21.90;76.60;;;;;;5019871;28;20558;-78
2023/09/03 05:56:44;;;;;;;0.40;0.40;;;21.90;76.70;;;;;;5026871;28;20041;-78
2023/09/03 05:59:10;;;;;;;0.40;0.40;;;21.90;76.60;;;;;;5024694;28;20037;-78
2023/09/03 06:01:36;;;;;;;0.40;0.40;;;21.90;76.70;;;;;;5025617;28;20046;-78
2023/09/03 06:04:09;;;;;;;3.80;0.50;;;21.90;76.60;;;;;;5025731;28;20041;-77
2023/09/03 06:06:38;;;;;;;0.68;0.68;;;21.90;76.60;;;;;;5023774;28;20035;-78
2023/09/03 06:09:05;;;;;;;0.45;0.45;;;21.90;76.60;;;;;;5025240;28;20041;-77
2023/09/03 06:11:33;;;;;;;0.50;0.50;;;21.90;76.70;;;;;;5025220;28;20045;-78
2023/09/03 06:13:59;;;;;;;0.40;0.40;;;21.90;76.70;;;;;;5024710;28;20052;-78
2023/09/03 06:16:25;;;;;;;0.50;0.50;;;21.90;76.70;;;;;;5026648;28;20041;-78
2023/09/03 06:18:51;;;;;;;0.60;0.60;;;21.90;76.70;;;;;;5025100;28;20029;-78
2023/09/03 06:21:17;;;;;;;0.50;0.50;;;21.90;76.70;;;;;;5024414;28;21051;-78
2023/09/03 06:23:42;;;;;;;0.40;0.40;;;21.90;76.80;;;;;;5025884;28;20124;-78
2023/09/03 06:26:08;;;;;;;0.30;0.30;;;21.90;76.70;;;;;;5024289;28;20052;-78
2023/09/03 06:28:33;;;;;;;0.60;0.60;;;21.90;77.50;;;;;;5025630;28;20041;-78
2023/09/03 06:31:00;;;;;;;0.50;0.50;;;21.90;77.40;;;;;;5026561;28;20049;-77
2023/09/03 06:33:25;;;;;;;0.30;0.30;;;21.90;76.70;;;;;;5025309;28;20045;-78
2023/09/03 06:35:51;;;;;;;0.50;0.50;;;21.90;76.70;;;;;;5025676;28;20148;-78
2023/09/03 06:38:16;;;;;;;0.32;0.32;;;21.90;76.70;;;;;;5025343;28;23092;-78
2023/09/03 06:40:42;;;;;;;0.40;0.40;;;21.90;76.60;;;;;;5025682;28;20037;-78
2023/09/03 06:43:08;;;;;;;0.50;0.50;;;21.90;77.50;;;;;;5025484;28;20491;-78
2023/09/03 06:45:33;;;;;;;0.40;0.40;;;21.90;76.80;;;;;;5025383;28;20403;-78
2023/09/03 06:47:59;;;;;;;0.30;0.30;;;21.90;76.90;;;;;;5024338;28;20052;-76
2023/09/03 06:50:24;;;;;;;0.50;0.50;;;21.90;76.90;;;;;;5025038;28;20521;-79
2023/09/03 06:52:50;;;;;;;0.40;0.40;;;21.90;77.10;;;;;;5025505;28;20040;-78
2023/09/03 06:55:15;;;;;;;0.57;0.57;;;21.90;77.00;;;;;;5025569;28;20049;-78
2023/09/03 06:57:41;;;;;;;0.52;0.52;;;21.90;77.00;;;;;;5025180;28;20056;-78
2023/09/03 07:00:09;;;;;;;0.63;0.50;;;21.90;76.90;;;;;;5024792;28;20041;-77
2023/09/03 07:02:35;;;;;;;0.40;0.40;;;21.90;77.00;;;;;;5024106;28;20434;-78
2023/09/03 07:05:00;;;;;;;0.45;0.45;;;21.90;77.90;;;;;;5025162;28;20487;-77
2023/09/03 07:07:27;;;;;;;0.50;0.50;;;21.90;77.10;;;;;;5025131;28;20407;-78
2023/09/03 07:09:53;;;;;;;0.50;0.50;;;21.90;77.00;;;;;;5025933;28;20045;-78
2023/09/03 07:12:19;;;;;;;0.30;0.30;;;21.90;77.20;;;;;;5024106;28;20039;-78
2023/09/03 07:14:45;;;;;;;0.50;0.50;;;22.00;76.90;;;;;;5025461;28;20068;-78
2023/09/03 07:17:11;;;;;;;0.30;0.30;;;21.90;76.80;;;;;;5024881;28;20415;-78
2023/09/03 07:19:36;;;;;;;0.50;0.50;;;21.90;76.90;;;;;;5025307;28;20041;-78
2023/09/03 07:22:02;;;;;;;0.50;0.50;;;21.90;76.90;;;;;;5024819;28;20503;-77
2023/09/03 07:24:28;;;;;;;0.50;0.50;;;22.00;77.10;;;;;;5023892;28;20448;-78
2023/09/03 07:26:53;;;;;;;0.40;0.40;;;22.00;77.10;;;;;;5024896;28;20045;-78
2023/09/03 07:29:19;;;;;;;0.50;0.50;;;22.00;77.10;;;;;;5025375;28;20038;-78
2023/09/03 07:31:45;;;;;;;0.63;0.63;;;22.00;77.10;;;;;;5027924;28;20053;-78
2023/09/03 07:34:10;;;;;;;0.40;0.40;;;22.00;77.10;;;;;;5029372;28;20040;-78
2023/09/03 07:36:36;;;;;;;0.60;0.60;;;22.00;77.00;;;;;;5022491;28;20104;-78
2023/09/03 07:39:03;;;;;;;0.60;0.50;;;22.00;76.80;;;;;;5028710;28;20046;-75
2023/09/03 07:41:30;;;;;;;0.50;0.50;;;22.00;76.70;;;;;;5025596;28;20064;-78
2023/09/03 07:43:55;;;;;;;0.35;0.35;;;22.00;76.90;;;;;;5026816;28;20517;-78
2023/09/03 07:46:21;;;;;;;0.40;0.40;;;22.00;76.80;;;;;;5029166;28;20037;-78
2023/09/03 07:48:46;;;;;;;0.40;0.40;;;22.00;76.90;;;;;;5027935;28;20056;-78
2023/09/03 07:51:15;;;;;;;0.38;0.38;;;22.00;76.80;;;;;;5027062;28;20522;-78
2023/09/03 07:53:40;;;;;;;0.40;0.40;;;22.00;76.90;;;;;;5027331;28;20064;-78
2023/09/03 07:56:06;;;;;;;0.38;0.38;;;22.00;76.90;;;;;;5028235;28;20411;-78
2023/09/03 07:58:31;;;;;;;0.40;0.40;;;22.00;77.00;;;;;;5027375;28;20049;-78
2023/09/03 08:00:57;;;;;;;0.47;0.47;;;22.00;76.90;;;;;;5029005;28;20043;-79
2023/09/03 08:03:26;;;;;;;0.95;0.40;;;22.00;76.90;;;;;;5027580;28;20491;-78
2023/09/03 08:05:52;;;;;;;0.47;0.47;;;22.00;76.70;;;;;;5025841;28;20349;-78
2023/09/03 08:08:18;;;;;;;0.60;0.60;;;22.00;76.60;;;;;;5026403;28;20073;-78
2023/09/03 08:10:43;;;;;;;0.40;0.40;;;22.00;76.70;;;;;;5028110;28;20600;-78
2023/09/03 08:13:09;;;;;;;0.50;0.50;;;22.10;77.00;;;;;;5028306;28;20473;-77
2023/09/03 08:15:34;;;;;;;0.40;0.40;;;22.00;76.90;;;;;;5027272;28;20045;-78
2023/09/03 08:18:00;;;;;;;0.40;0.40;;;22.10;76.40;;;;;;5026420;28;20034;-78
2023/09/03 08:20:25;;;;;;;0.45;0.45;;;22.10;76.40;;;;;;5027335;28;20107;-78
2023/09/03 08:22:52;;;;;;;0.50;0.50;;;22.10;76.10;;;;;;5027090;28;20407;-78
2023/09/03 08:25:19;;;;;;;0.40;0.40;;;22.10;76.10;;;;;;5028561;28;20179;-77
2023/09/03 08:27:45;;;;;;;0.43;0.43;;;22.10;76.20;;;;;;5027086;28;20522;-77
2023/09/03 08:30:11;;;;;;;0.50;0.50;;;22.10;76.10;;;;;;5027426;28;20045;-78
2023/09/03 08:32:36;;;;;;;0.50;0.50;;;22.10;76.20;;;;;;5027949;28;20424;-78
2023/09/03 08:35:02;;;;;;;0.50;0.50;;;22.10;76.20;;;;;;5026498;28;20030;-78
2023/09/03 08:37:28;;;;;;;0.40;0.40;;;22.10;76.40;;;;;;5025137;28;20060;-77
2023/09/03 08:39:54;;;;;;;0.40;0.40;;;22.10;76.30;;;;;;5027718;28;20522;-78
2023/09/03 08:42:20;;;;;;;0.45;0.45;;;22.10;76.30;;;;;;5026805;28;20037;-77
2023/09/03 08:44:46;;;;;;;0.40;0.40;;;22.10;76.20;;;;;;5025067;28;20033;-78
2023/09/03 08:47:12;;;;;;;0.40;0.40;;;22.20;76.20;;;;;;5022962;28;20038;-78
2023/09/03 08:49:38;;;;;;;0.50;0.50;;;22.20;76.10;;;;;;5027556;28;20051;-77
2023/09/03 08:52:05;;;;;;;0.35;0.35;;;22.20;77.00;;;;;;5026894;28;20493;-78
2023/09/03 08:54:30;;;;;;;0.40;0.40;;;22.20;76.10;;;;;;5024946;28;20045;-78
2023/09/03 08:56:57;;;;;;;0.30;0.30;;;22.20;76.10;;;;;;5026461;28;20049;-78
2023/09/03 08:59:23;;;;;;;0.43;0.43;;;22.30;76.00;;;;;;5025032;28;20442;-78
2023/09/03 09:01:52;;;;;;;0.50;0.50;;;22.30;75.90;;;;;;5027419;28;20139;-77
2023/09/03 09:04:17;;;;;;;0.50;0.50;;;22.30;75.90;;;;;;5027226;28;20060;-77
2023/09/03 09:06:43;;;;;;;0.40;0.40;;;22.30;75.80;;;;;;5025026;28;20499;-78
2023/09/03 09:09:09;;;;;;;0.50;0.50;;;22.30;75.60;;;;;;5026478;28;20041;-78
2023/09/03 09:11:38;;;;;;;0.40;0.40;;;22.40;75.80;;;;;;5026614;28;20575;-78
2023/09/03 09:14:07;;;;;;;0.50;0.50;;;22.40;75.70;;;;;;5009696;28;20530;-78
2023/09/03 09:16:32;;;;;;;0.40;0.40;;;22.40;75.30;;;;;;5025150;28;20504;-78
2023/09/03 09:18:58;;;;;;;0.40;0.40;;;22.40;75.30;;;;;;5027514;28;20052;-78
2023/09/03 09:21:24;;;;;;;0.50;0.50;;;22.40;75.30;;;;;;5025367;28;20037;-78
2023/09/03 09:23:50;;;;;;;0.40;0.40;;;22.50;75.40;;;;;;5025460;28;20400;-78
2023/09/03 09:26:18;;;;;;;0.40;0.40;;;22.50;75.30;;;;;;5008002;28;20095;-77
2023/09/03 09:28:57;;;;;;;0.40;0.40;;;22.50;75.10;;;;;;5026870;28;20042;-78
2023/09/03 09:31:27;;;;;;;0.40;0.40;;;22.50;75.20;;;;;;5027869;28;20041;-78
2023/09/03 09:33:52;;;;;;;0.30;0.30;;;22.60;75.10;;;;;;5025909;28;20069;-78
2023/09/03 09:36:18;;;;;;;0.50;0.50;;;22.60;75.10;;;;;;5025032;28;20084;-77
2023/09/03 09:38:43;;;;;;;0.30;0.30;;;22.60;75.00;;;;;;5025155;28;20067;-78
2023/09/03 09:41:25;;;;;;;0.30;0.30;;;22.60;75.10;;;;;;5022718;28;20450;-78
2023/09/03 09:43:51;;;;;;;0.40;0.40;;;22.60;75.10;;;;;;5025506;28;20038;-78
2023/09/03 09:46:26;;;;;;;0.30;0.30;;;22.60;75.00;;;;;;5026403;28;20034;-78
2023/09/03 09:48:58;;;;;;;0.30;0.30;;;22.70;74.90;;;;;;5024650;28;20041;-77
2023/09/03 09:51:24;;;;;;;0.30;0.30;;;22.70;75.00;;;;;;5021388;28;20037;-77
2023/09/03 09:54:00;;;;;;;0.40;0.40;;;22.70;74.90;;;;;;5025644;28;20507;-78
2023/09/03 09:56:30;;;;;;;0.40;0.40;;;22.70;75.00;;;;;;5025630;28;20080;-77
2023/09/03 09:58:59;;;;;;;0.30;0.30;;;22.70;75.00;;;;;;5025880;28;20046;-78
2023/09/03 10:01:27;;;;;;;0.30;0.30;;;22.70;74.80;;;;;;5024245;28;20053;-77
2023/09/03 10:03:52;;;;;;;0.30;0.30;;;22.80;74.90;;;;;;5025794;28;20045;-78
2023/09/03 10:06:20;;;;;;;0.40;0.40;;;22.80;74.90;;;;;;5025577;28;20384;-78
2023/09/03 10:08:47;;;;;;;0.38;0.38;;;22.80;75.60;;;;;;5025306;28;20133;-78
2023/09/03 10:11:12;;;;;;;0.40;0.40;;;22.80;75.00;;;;;;5025773;28;20033;-77
2023/09/03 10:13:39;;;;;;;0.30;0.30;;;22.80;74.80;;;;;;5026535;28;20074;-78
2023/09/03 10:16:06;;;;;;;0.52;0.52;;;22.80;75.00;;;;;;5026146;28;20053;-78
2023/09/03 10:18:35;;;;;;;0.40;0.40;;;22.80;74.80;;;;;;5024427;28;20401;-77
2023/09/03 10:21:01;;;;;;;0.30;0.30;;;22.80;74.90;;;;;;5017618;28;20042;-78
2023/09/03 10:23:28;;;;;;;0.40;0.40;;;22.80;75.00;;;;;;5003930;28;20045;-78
2023/09/03 10:25:53;;;;;;;1.33;0.57;;;22.90;74.90;;;;;;5024823;28;20388;-78
2023/09/03 10:28:21;;;;;;;0.50;0.50;;;22.80;74.80;;;;;;5024761;28;20523;-77
2023/09/03 10:30:51;;;;;;;0.45;0.30;;;22.90;75.70;;;;;;5023515;28;20045;-78
2023/09/03 10:33:16;;;;;;;0.43;0.43;;;22.90;75.20;;;;;;5022307;28;20069;-77
2023/09/03 10:36:11;;;;;;;0.40;0.40;;;22.90;74.80;;;;;;5024008;28;20503;-78
2023/09/03 10:38:37;;;;;;;0.30;0.30;;;22.90;74.90;;;;;;5023333;28;20100;-77
2023/09/03 10:41:28;;;;;;;0.55;0.55;;;22.90;75.10;;;;;;5025946;28;20046;-78
2023/09/03 10:43:54;;;;;;;0.50;0.50;;;22.90;75.00;;;;;;5022695;28;20470;-78
2023/09/03 10:46:29;;;;;;;0.40;0.40;;;22.90;74.80;;;;;;5026973;28;20049;-77
2023/09/03 10:48:56;;;;;;;0.40;0.40;;;22.90;75.10;;;;;;5024810;28;20049;-78
2023/09/03 10:51:36;;;;;;;0.40;0.40;;;22.90;75.10;;;;;;5024667;28;20042;-77
2023/09/03 10:54:18;;;;;;;0.40;0.40;;;22.90;75.20;;;;;;5025434;28;20052;-78
2023/09/03 10:57:06;;;;;;;0.40;0.40;;;22.90;75.00;;;;;;5021933;28;20042;-78
2023/09/03 11:00:05;;;;;;;0.50;0.50;;;22.90;75.20;;;;;;5024512;28;20140;-78
2023/09/03 11:02:32;;;;;;;0.35;0.35;;;22.90;75.20;;;;;;5024255;28;20124;-77
2023/09/03 11:05:20;;;;;;;0.32;0.32;;;23.00;75.10;;;;;;5024819;28;20137;-78
2023/09/03 11:07:46;;;;;;;0.40;0.40;;;23.00;74.80;;;;;;5026654;28;20034;-77
2023/09/03 11:10:21;;;;;;;0.95;0.50;;;23.00;75.10;;;;;;5029072;28;20615;-77
2023/09/03 11:12:49;;;;;;;0.30;0.30;;;23.00;74.90;;;;;;5024395;28;20087;-78
2023/09/03 11:15:15;;;;;;;0.52;0.52;;;23.10;74.90;;;;;;5027927;28;20574;-76
2023/09/03 11:17:50;;;;;;;0.40;0.40;;;23.10;75.20;;;;;;5025888;28;20041;-77
2023/09/03 11:20:33;;;;;;;1.60;0.50;;;23.10;75.10;;;;;;5023287;28;20129;-75
2023/09/03 11:22:59;;;;;;;0.95;0.40;;;23.10;75.40;;;;;;5025913;28;20483;-79
2023/09/03 11:25:35;;;;;;;1.23;0.40;;;23.10;74.80;;;;;;5023388;28;20460;-77
2023/09/03 11:28:00;;;;;;;1.85;0.50;;;23.10;75.50;;;;;;5023984;28;20499;-78
2023/09/03 11:30:26;;;;;;;1.80;0.40;;;23.10;75.00;;;;;;5022821;28;20057;-76
2023/09/03 11:32:52;;;;;;;0.98;0.40;;;23.20;75.00;;;;;;5026442;28;20050;-77
2023/09/03 11:35:18;;;;;;;0.75;0.40;;;23.30;75.10;;;;;;5028134;28;20176;-77
2023/09/03 11:37:43;;;;;;;0.40;0.40;;;23.30;75.10;;;;;;5023381;28;20144;-79
2023/09/03 11:40:09;;;;;;;0.40;0.40;;;23.30;75.10;;;;;;4673680;28;10000123;-79
2023/09/03 11:42:35;;;;;;;0.50;0.50;;;23.20;75.10;;;;;;5023547;28;20081;-77
2023/09/03 11:45:04;;;;;;;0.55;0.40;;;23.20;74.90;;;;;;5025925;28;20143;-77
2023/09/03 11:47:36;;;;;;;0.40;0.40;;;23.20;75.20;;;;;;5021141;28;20056;-78
2023/09/03 11:50:10;;;;;;;0.68;0.68;;;23.20;75.10;;;;;;5020268;28;25627;-78
2023/09/03 11:52:35;;;;;;;0.60;0.60;;;23.20;75.70;;;;;;5007606;28;20110;-79
2023/09/03 11:55:01;;;;;;;0.40;0.40;;;23.20;75.60;;;;;;5022712;28;20901;-79
2023/09/03 11:57:28;;;;;;;0.55;0.50;;;23.20;75.50;;;;;;5018541;28;20049;-79
2023/09/03 11:59:54;;;;;;;0.47;0.47;;;23.30;75.40;;;;;;5023337;28;20137;-79
2023/09/03 12:02:20;;;;;;;0.65;0.63;;;23.20;75.50;;;;;;5024160;28;20025;-78
2023/09/03 12:04:46;;;;;;;0.95;0.93;;;23.20;76.30;;;;;;5020571;28;20574;-79
2023/09/03 12:07:15;;;;;;;0.45;0.45;;;23.20;75.00;;;;;;5027306;28;20463;-78
2023/09/03 12:09:41;;;;;;;0.70;0.70;;;23.20;75.00;;;;;;5025300;28;20056;-78
2023/09/03 12:12:08;;;;;;;0.50;0.50;;;23.20;75.70;;;;;;4673428;28;10000001;-79
2023/09/03 12:14:33;;;;;;;1.92;0.90;;;23.20;75.70;;;;;;5023081;28;20076;-79
2023/09/03 12:16:59;;;;;;;0.70;0.70;;;23.20;75.50;;;;;;5025689;28;20547;-80
2023/09/03 12:19:37;;;;;;;0.50;0.50;;;23.20;76.00;;;;;;5023496;28;20115;-79
2023/09/03 12:22:03;;;;;;;2.53;0.70;;;23.20;75.60;;;;;;5023225;28;20116;-80
2023/09/03 12:24:29;;;;;;;0.60;0.60;;;23.20;75.70;;;;;;5019694;28;20053;-78
2023/09/03 12:27:04;;;;;;;0.70;0.70;;;23.30;76.00;;;;;;5021346;28;20046;-79
2023/09/03 12:29:38;;;;;;;0.73;0.30;;;23.30;75.60;;;;;;5022393;28;20041;-79
2023/09/03 12:32:05;;;;;;;0.40;0.40;;;23.30;75.60;;;;;;5006122;28;20084;-79
2023/09/03 12:34:34;;;;;;;0.47;0.47;;;23.30;75.50;;;;;;5021943;28;20585;-79
2023/09/03 12:37:00;;;;;;;0.70;0.70;;;23.30;75.50;;;;;;5025024;28;20045;-80
2023/09/03 12:39:35;;;;;;;0.40;0.40;;;23.30;75.70;;;;;;5022362;28;20072;-79
2023/09/03 12:42:02;;;;;;;0.38;0.38;;;23.30;76.50;;;;;;5022620;28;20053;-80
2023/09/03 12:44:28;;;;;;;1.15;0.60;;;23.30;75.70;;;;;;5022166;28;20148;-78
2023/09/03 12:46:54;;;;;;;2.72;0.47;;;23.30;75.80;;;;;;5019665;28;25416;-79